Time;durP1;ratioP1;P1;durP2;ratioP2;P2;SDS_P1;SDS_P2;PMS_P1;PMS_P2;Temp;Humidity;BMP_temperature;BMP_pressure;BME280_temperature;BME280_humidity;BME280_pressure;Samples;Min_cycle;Max_cycle;Signal;HPM_P1;HPM_P2
2024/01/11 00:02:17;;;;;;;36.97;12.88;;;;;;;-2.48;60.64;101706.38;10496505;28;20044;-61
2024/01/11 00:07:19;;;;;;;36.22;11.05;;;;;;;-2.42;60.71;101695.63;10500814;28;20110;-63
2024/01/11 00:12:21;;;;;;;29.17;10.75;;;;;;;-2.37;60.65;101705.97;10503767;28;20044;-61
2024/01/11 00:17:22;;;;;;;32.90;12.00;;;;;;;-2.31;60.74;101708.34;10502291;28;20390;-61
2024/01/11 00:22:24;;;;;;;27.40;10.90;;;;;;;-2.27;61.03;101705.56;10511101;28;20056;-60
2024/01/11 00:27:25;;;;;;;33.67;11.30;;;;;;;-2.13;60.83;101701.50;10502762;28;20491;-60
2024/01/11 00:32:26;;;;;;;31.65;11.57;;;;;;;-2.05;61.13;101691.53;10504462;28;20489;-60
2024/01/11 00:37:28;;;;;;;35.33;10.85;;;;;;;-1.98;60.87;101693.00;10507429;28;20045;-60
2024/01/11 00:42:29;;;;;;;28.50;10.55;;;;;;;-1.92;60.87;101694.53;10500390;28;20056;-60
2024/01/11 00:47:31;;;;;;;30.80;10.27;;;;;;;-1.86;60.74;101699.53;10502218;28;20045;-60
2024/01/11 00:52:32;;;;;;;30.98;10.88;;;;;;;-1.82;60.99;101701.13;10507670;28;20055;-61
2024/01/11 00:57:34;;;;;;;35.08;10.85;;;;;;;-1.80;60.68;101713.34;10507340;28;20044;-61
2024/01/11 01:02:35;;;;;;;30.10;11.45;;;;;;;-1.77;60.99;101711.50;10504449;28;20399;-60
2024/01/11 01:07:37;;;;;;;28.65;10.57;;;;;;;-1.76;60.43;101710.56;10503799;28;20062;-60
2024/01/11 01:12:38;;;;;;;27.42;9.93;;;;;;;-1.73;60.60;101713.09;10507905;28;20044;-61
2024/01/11 01:17:39;;;;;;;28.50;11.23;;;;;;;-1.73;60.57;101706.03;10506509;28;20402;-61
2024/01/11 01:22:41;;;;;;;31.58;9.95;;;;;;;-1.70;60.54;101702.41;10508837;28;20528;-61
2024/01/11 01:27:42;;;;;;;28.30;10.40;;;;;;;-1.72;60.43;101698.97;10509113;28;20106;-61
2024/01/11 01:32:44;;;;;;;34.22;10.75;;;;;;;-1.71;60.42;101695.44;10510466;28;20049;-61
2024/01/11 01:37:45;;;;;;;26.83;12.07;;;;;;;-1.72;60.19;101704.25;10502148;28;20105;-61
2024/01/11 01:42:48;;;;;;;26.88;10.45;;;;;;;-1.71;60.25;101714.75;10505184;28;20090;-60
2024/01/11 01:47:49;;;;;;;28.05;10.85;;;;;;;-1.76;60.14;101729.03;10508934;28;20040;-61
2024/01/11 01:52:51;;;;;;;27.88;10.52;;;;;;;-1.83;60.00;101731.06;10504322;28;20075;-61
2024/01/11 01:57:54;;;;;;;31.40;11.25;;;;;;;-1.88;60.17;101735.66;10507063;28;20925;-61
2024/01/11 02:02:56;;;;;;;34.67;11.65;;;;;;;-1.88;60.00;101728.59;10503884;28;20375;-61
2024/01/11 02:08:00;;;;;;;27.52;10.60;;;;;;;-1.90;60.16;101734.84;10505750;28;20058;-61
2024/01/11 02:13:02;;;;;;;25.42;11.02;;;;;;;-1.92;60.27;101729.63;10495513;28;20052;-61
2024/01/11 02:18:04;;;;;;;30.00;11.40;;;;;;;-1.94;60.67;101726.19;10506025;28;20592;-60
2024/01/11 02:23:11;;;;;;;32.45;12.35;;;;;;;-1.96;60.48;101728.03;10506651;28;20144;-60
2024/01/11 02:28:13;;;;;;;31.25;11.50;;;;;;;-1.93;60.01;101733.19;10504781;28;20530;-61
2024/01/11 02:33:15;;;;;;;44.33;11.20;;;;;;;-1.97;60.32;101739.50;10505604;28;20324;-61
2024/01/11 02:38:17;;;;;;;33.33;11.73;;;;;;;-2.03;60.06;101742.41;10502265;28;20044;-61
2024/01/11 02:43:19;;;;;;;28.63;11.38;;;;;;;-2.09;60.31;101732.09;10506108;28;20575;-61
2024/01/11 02:48:20;;;;;;;36.05;12.07;;;;;;;-2.20;60.45;101735.13;10497574;28;20072;-61
2024/01/11 02:53:22;;;;;;;35.03;12.25;;;;;;;-2.22;60.41;101727.28;10503309;28;20093;-62
2024/01/11 02:58:23;;;;;;;33.30;10.77;;;;;;;-2.22;60.41;101724.66;10504285;28;20136;-62
2024/01/11 03:03:25;;;;;;;32.05;10.35;;;;;;;-2.26;60.29;101719.59;10497986;28;20045;-61
2024/01/11 03:08:27;;;;;;;35.60;11.05;;;;;;;-2.31;60.19;101721.53;10503025;28;20071;-62
2024/01/11 03:13:29;;;;;;;39.47;12.38;;;;;;;-2.38;60.15;101710.38;10505116;28;20060;-61
2024/01/11 03:18:31;;;;;;;29.48;10.20;;;;;;;-2.47;59.91;101714.25;10479090;28;20062;-61
2024/01/11 03:23:32;;;;;;;32.15;11.45;;;;;;;-2.48;60.14;101712.50;10498213;28;20089;-60
2024/01/11 03:28:34;;;;;;;31.70;10.95;;;;;;;-2.54;60.46;101711.88;10497142;28;20112;-60
2024/01/11 03:33:35;;;;;;;32.05;10.77;;;;;;;-2.55;60.37;101713.63;10500771;28;20044;-61
2024/01/11 03:38:38;;;;;;;32.55;11.35;;;;;;;-2.67;60.49;101714.97;10505281;28;20643;-61
2024/01/11 03:43:39;;;;;;;28.70;12.55;;;;;;;-2.76;61.03;101724.97;10503222;28;20147;-61
2024/01/11 03:48:40;;;;;;;36.22;12.45;;;;;;;-2.77;60.49;101732.00;10496477;28;20055;-61
2024/01/11 03:53:42;;;;;;;40.38;12.45;;;;;;;-2.76;60.36;101724.97;10500827;28;20059;-61
2024/01/11 03:58:44;;;;;;;35.75;12.20;;;;;;;-2.89;60.60;101714.03;10499728;28;20109;-61
2024/01/11 04:03:46;;;;;;;32.45;11.68;;;;;;;-2.94;60.37;101716.84;10513439;28;20048;-61
2024/01/11 04:08:48;;;;;;;44.08;13.73;;;;;;;-2.96;60.81;101723.94;10512212;28;20049;-61
2024/01/11 04:13:50;;;;;;;38.60;13.43;;;;;;;-2.92;60.72;101720.28;10510307;28;20059;-61
2024/01/11 04:18:51;;;;;;;35.22;12.65;;;;;;;-2.90;60.35;101722.84;10504507;28;20401;-61
2024/01/11 04:23:53;;;;;;;37.75;12.35;;;;;;;-2.88;61.10;101727.16;10507151;28;20048;-62
2024/01/11 04:28:54;;;;;;;35.80;12.73;;;;;;;-2.92;60.83;101730.81;10512739;28;20110;-60
2024/01/11 04:34:00;;;;;;;42.47;15.07;;;;;;;-3.03;61.29;101727.69;10508938;28;20838;-62
2024/01/11 04:39:02;;;;;;;43.72;14.25;;;;;;;-3.08;61.53;101733.13;10506951;28;20435;-59
2024/01/11 04:44:03;;;;;;;36.55;14.10;;;;;;;-2.98;61.22;101733.66;10504389;28;20505;-60
2024/01/11 04:49:05;;;;;;;44.80;15.40;;;;;;;-2.97;60.98;101739.78;10510538;28;20048;-60
2024/01/11 04:54:06;;;;;;;34.63;13.63;;;;;;;-2.98;61.30;101733.66;10503859;28;20504;-57
2024/01/11 04:59:08;;;;;;;35.28;13.68;;;;;;;-3.00;61.02;101731.06;10504873;28;20049;-60
2024/01/11 05:04:09;;;;;;;42.03;13.40;;;;;;;-3.01;61.28;101731.97;10506177;28;20495;-59
2024/01/11 05:09:11;;;;;;;44.72;14.18;;;;;;;-2.99;61.31;101742.44;10512218;28;20048;-59
2024/01/11 05:14:12;;;;;;;42.72;13.60;;;;;;;-3.02;61.09;101738.16;10502091;28;20053;-59
2024/01/11 05:19:14;;;;;;;35.75;12.50;;;;;;;-3.03;61.03;101743.47;10505713;28;20052;-59
2024/01/11 05:24:16;;;;;;;38.78;12.45;;;;;;;-3.01;60.84;101747.75;10501309;28;20052;-59
2024/01/11 05:29:17;;;;;;;39.85;13.32;;;;;;;-3.03;60.94;101748.72;10504906;28;20371;-59
2024/01/11 05:34:18;;;;;;;38.22;12.48;;;;;;;-3.05;60.91;101751.41;10502079;28;20056;-60
2024/01/11 05:39:20;;;;;;;44.47;13.80;;;;;;;-3.08;60.83;101751.53;10500711;28;20478;-61
2024/01/11 05:44:22;;;;;;;37.05;12.73;;;;;;;-3.08;60.93;101763.81;10509467;28;20048;-61
2024/01/11 05:49:23;;;;;;;31.80;11.90;;;;;;;-3.08;61.12;101771.69;10507484;28;20570;-61
2024/01/11 05:54:26;;;;;;;38.03;13.40;;;;;;;-3.07;60.94;101768.16;10498684;28;20509;-61
2024/01/11 05:59:28;;;;;;;39.20;12.88;;;;;;;-3.05;61.35;101782.97;10502492;28;20102;-61
2024/01/11 06:04:32;;;;;;;35.00;12.15;;;;;;;-3.02;61.09;101795.16;10503577;28;20044;-61
2024/01/11 06:09:34;;;;;;;39.15;13.10;;;;;;;-3.04;60.96;101799.59;10506633;28;20044;-61
2024/01/11 06:14:35;;;;;;;35.05;13.70;;;;;;;-3.03;60.86;101815.34;10504165;28;20105;-61
2024/01/11 06:19:38;;;;;;;43.72;14.25;;;;;;;-3.08;60.82;101813.78;10505490;28;20071;-61
2024/01/11 06:24:40;;;;;;;40.50;13.07;;;;;;;-3.13;61.34;101828.88;10514220;28;20086;-62
2024/01/11 06:29:41;;;;;;;42.00;14.45;;;;;;;-3.14;61.42;101828.00;10507758;28;20127;-61
2024/01/11 06:34:45;;;;;;;46.90;14.82;;;;;;;-3.11;61.48;101835.78;10508076;28;20144;-63
2024/01/11 06:39:47;;;;;;;46.15;15.77;;;;;;;-3.09;61.34;101827.84;10485159;28;20056;-62
2024/01/11 06:44:48;;;;;;;50.20;16.75;;;;;;;-3.10;61.18;101841.91;10501902;28;20061;-62
2024/01/11 06:49:50;;;;;;;48.85;15.25;;;;;;;-3.08;61.49;101832.19;10503974;28;20128;-60
2024/01/11 06:54:51;;;;;;;52.03;15.43;;;;;;;-3.09;61.35;101827.84;10507119;28;20064;-61
2024/01/11 06:59:52;;;;;;;42.35;15.65;;;;;;;-3.10;61.38;101837.53;10503052;28;20089;-60
2024/01/11 07:04:54;;;;;;;43.90;15.68;;;;;;;-3.11;61.38;101840.19;10504849;28;20044;-61
2024/01/11 07:09:55;;;;;;;45.10;16.73;;;;;;;-3.17;61.63;101849.16;10505044;28;20044;-61
2024/01/11 07:14:57;;;;;;;40.95;15.45;;;;;;;-3.17;61.46;101857.03;10498283;28;20507;-60
2024/01/11 07:19:58;;;;;;;51.42;16.00;;;;;;;-3.21;61.50;101844.91;10494921;28;20068;-63
2024/01/11 07:25:00;;;;;;;52.28;16.23;;;;;;;-3.08;61.81;101851.47;10482508;28;20084;-63
2024/01/11 07:30:03;;;;;;;47.95;14.30;;;;;;;-3.00;61.11;101851.22;10485796;28;20037;-63
2024/01/11 07:35:06;;;;;;;53.78;15.85;;;;;;;-2.97;60.83;101852.88;10498942;28;20056;-63
2024/01/11 07:40:13;;;;;;;40.15;14.30;;;;;;;-2.90;61.16;101846.47;10501769;28;20094;-62
2024/01/11 07:45:15;;;;;;;43.15;15.30;;;;;;;-2.87;60.95;101835.88;10509545;28;20072;-63
2024/01/11 07:50:16;;;;;;;40.88;14.82;;;;;;;-2.84;60.88;101828.72;10510420;28;20494;-62
2024/01/11 07:55:23;;;;;;;49.63;17.80;;;;;;;-2.83;60.72;101813.78;10513292;28;20052;-63
2024/01/11 08:00:25;;;;;;;40.90;14.52;;;;;;;-2.78;60.71;101827.66;10509293;28;20188;-66
2024/01/11 08:05:26;;;;;;;42.70;16.05;;;;;;;-2.79;60.75;101831.19;10506895;28;20156;-66
2024/01/11 08:10:28;;;;;;;51.17;16.10;;;;;;;-2.79;60.96;101832.03;10507177;28;20598;-67
2024/01/11 08:15:29;;;;;;;46.50;15.77;;;;;;;-2.75;60.84;101835.44;10502626;28;20647;-66
2024/01/11 08:20:30;;;;;;;39.58;15.30;;;;;;;-2.68;60.91;101829.06;10506629;28;20040;-66
2024/01/11 08:25:32;;;;;;;53.60;17.30;;;;;;;-2.64;60.94;101830.66;10508408;28;20840;-65
2024/01/11 08:30:33;;;;;;;51.88;19.35;;;;;;;-2.52;60.95;101839.03;10507933;28;20044;-66
2024/01/11 08:35:35;;;;;;;48.80;17.45;;;;;;;-2.48;60.97;101853.81;10510586;28;20072;-66
2024/01/11 08:40:36;;;;;;;47.75;14.48;;;;;;;-2.44;60.83;101863.31;10486579;28;20372;-66
2024/01/11 08:45:38;;;;;;;44.45;14.40;;;;;;;-2.39;61.16;101866.63;10508809;28;20052;-66
2024/01/11 08:50:39;;;;;;;47.42;15.93;;;;;;;-2.28;61.04;101882.91;10503977;28;20045;-66
2024/01/11 08:55:41;;;;;;;43.33;15.05;;;;;;;-2.20;60.92;101862.41;10507298;28;20040;-66
2024/01/11 09:00:45;;;;;;;41.22;15.38;;;;;;;-2.04;61.53;101864.47;10504915;28;20529;-66
2024/01/11 09:05:47;;;;;;;47.13;15.43;;;;;;;-1.92;60.96;101864.00;10512984;28;20660;-66
2024/01/11 09:10:49;;;;;;;38.08;14.50;;;;;;;-1.81;61.02;101856.56;10508435;28;20079;-65
2024/01/11 09:15:50;;;;;;;39.72;14.50;;;;;;;-1.64;60.86;101841.88;10506944;28;20410;-66
2024/01/11 09:20:51;;;;;;;39.25;14.85;;;;;;;-1.50;61.00;101843.94;10505128;28;20079;-66
2024/01/11 09:25:53;;;;;;;40.33;15.73;;;;;;;-1.28;60.68;101849.25;10507149;28;20048;-67
2024/01/11 09:30:59;;;;;;;34.58;14.25;;;;;;;-1.14;60.81;101854.81;10490210;28;20064;-66
2024/01/11 09:36:01;;;;;;;42.00;14.82;;;;;;;-1.05;60.78;101864.09;10508694;28;20135;-65
2024/01/11 09:41:07;;;;;;;36.53;14.05;;;;;;;-0.89;60.57;101870.47;10504080;28;20059;-65
2024/01/11 09:46:12;;;;;;;40.92;15.32;;;;;;;-0.76;60.50;101862.88;10507289;28;20097;-65
2024/01/11 09:51:14;;;;;;;36.50;13.98;;;;;;;-0.64;60.23;101870.28;10500526;28;20110;-64
2024/01/11 09:56:16;;;;;;;37.35;13.77;;;;;;;-0.52;59.90;101870.69;10505493;28;20047;-65
2024/01/11 10:01:18;;;;;;;35.28;13.70;;;;;;;-0.36;60.04;101878.78;10482113;28;20064;-64
2024/01/11 10:06:21;;;;;;;45.75;15.18;;;;;;;-0.26;59.57;101874.81;10503110;28;20129;-64
2024/01/11 10:11:23;;;;;;;40.85;13.85;;;;;;;-0.19;59.63;101863.03;10504870;22;20056;-64
2024/01/11 10:16:25;;;;;;;34.13;13.02;;;;;;;-0.13;60.02;101867.19;10504570;28;20063;-66
2024/01/11 10:21:27;;;;;;;38.20;13.77;;;;;;;-0.06;59.69;101858.03;10482013;28;20051;-67
2024/01/11 10:26:30;;;;;;;33.72;15.02;;;;;;;0.04;59.47;101851.44;10501360;28;20044;-66
2024/01/11 10:31:31;;;;;;;43.80;15.00;;;;;;;0.18;59.05;101842.88;10502155;28;20043;-66
2024/01/11 10:36:33;;;;;;;36.53;14.35;;;;;;;0.17;58.55;101852.56;10498862;28;20052;-64
2024/01/11 10:41:40;;;;;;;37.38;14.27;;;;;;;0.25;58.78;101848.72;10507004;28;20054;-66
2024/01/11 10:46:45;;;;;;;43.00;14.77;;;;;;;0.39;58.70;101833.03;10502741;28;20488;-65
2024/01/11 10:51:54;;;;;;;31.45;12.50;;;;;;;0.48;58.85;101835.25;10499054;28;20044;-66
2024/01/11 10:56:59;;;;;;;34.33;15.02;;;;;;;0.62;58.52;101828.44;10500906;28;20614;-66
2024/01/11 11:02:12;;;;;;;38.75;14.75;;;;;;;0.75;58.17;101814.53;10497505;28;20071;-65
2024/01/11 11:07:15;;;;;;;34.55;12.93;;;;;;;0.86;58.33;101819.25;10503336;28;20076;-66
2024/01/11 11:12:18;;;;;;;28.98;11.73;;;;;;;0.98;58.24;101816.00;10502000;28;20048;-66
2024/01/11 11:17:19;;;;;;;30.02;12.20;;;;;;;1.13;58.05;101817.03;10504051;28;20056;-67
2024/01/11 11:22:21;;;;;;;26.33;12.18;;;;;;;1.29;57.60;101805.63;10504808;28;20052;-67
2024/01/11 11:27:22;;;;;;;35.05;12.50;;;;;;;1.41;57.11;101789.09;10505571;28;20665;-66
2024/01/11 11:32:37;;;;;;;27.23;10.43;;;;;;;1.58;56.90;101790.84;10508223;28;20041;-65
2024/01/11 11:37:39;;;;;;;30.95;11.75;;;;;;;1.70;56.97;101790.19;10506312;28;20059;-65
2024/01/11 11:42:41;;;;;;;31.45;12.85;;;;;;;1.85;56.44;101792.94;10505699;28;20131;-67
2024/01/11 11:47:45;;;;;;;29.75;12.43;;;;;;;2.00;56.54;101778.84;10507399;28;20068;-65
2024/01/11 11:52:54;;;;;;;28.67;11.40;;;;;;;2.12;56.14;101778.16;10502811;28;20406;-64
2024/01/11 11:57:56;;;;;;;23.98;10.60;;;;;;;2.25;56.44;101770.38;10498203;28;20123;-64
2024/01/11 12:02:58;;;;;;;30.35;12.77;;;;;;;2.38;56.26;101786.44;10500659;28;20051;-63
2024/01/11 12:08:00;;;;;;;29.00;14.30;;;;;;;2.45;55.50;101763.94;10502286;28;20109;-64
2024/01/11 12:13:02;;;;;;;31.65;11.02;;;;;;;2.54;55.44;101760.72;10511959;28;20043;-65
2024/01/11 12:18:03;;;;;;;26.13;11.93;;;;;;;2.61;55.07;101752.38;10502786;28;20050;-64
2024/01/11 12:23:05;;;;;;;31.25;13.02;;;;;;;2.70;54.97;101741.25;10511239;28;20076;-65
2024/01/11 12:28:07;;;;;;;25.67;10.20;;;;;;;2.81;54.69;101737.97;10510868;28;20113;-64
2024/01/11 12:33:09;;;;;;;32.00;11.77;;;;;;;2.88;54.74;101747.25;10506562;28;20074;-65
2024/01/11 12:38:11;;;;;;;28.73;12.73;;;;;;;2.93;54.66;101740.72;10541555;28;20041;-64
2024/01/11 12:43:12;;;;;;;26.90;10.95;;;;;;;3.03;54.29;101737.53;10520085;28;20063;-65
2024/01/11 12:48:16;;;;;;;28.45;12.07;;;;;;;3.12;54.08;101729.84;10502464;28;20044;-67
2024/01/11 12:53:18;;;;;;;22.55;9.90;;;;;;;3.22;53.74;101721.31;10504180;28;20634;-65
2024/01/11 12:58:21;;;;;;;26.15;10.50;;;;;;;3.25;53.72;101721.97;10484317;28;20060;-66
2024/01/11 13:03:25;;;;;;;25.60;10.73;;;;;;;3.32;53.42;101722.47;10496202;28;20056;-66
2024/01/11 13:08:27;;;;;;;28.95;12.43;;;;;;;3.37;53.17;101715.91;10496248;28;20547;-65
2024/01/11 13:13:30;;;;;;;27.67;12.43;;;;;;;3.49;52.68;101716.09;10495096;28;20052;-67
2024/01/11 13:18:32;;;;;;;25.38;11.35;;;;;;;3.54;52.58;101709.53;10502775;28;20044;-67
2024/01/11 13:23:33;;;;;;;26.42;12.00;;;;;;;3.61;52.64;101703.81;10498313;28;20109;-66
2024/01/11 13:28:35;;;;;;;29.88;12.25;;;;;;;3.69;52.71;101699.75;10499118;28;20407;-65
2024/01/11 13:33:37;;;;;;;30.25;13.07;;;;;;;3.73;52.33;101706.56;10500427;28;20052;-65
2024/01/11 13:38:38;;;;;;;23.17;9.70;;;;;;;3.80;52.55;101708.84;10503901;28;20043;-65
2024/01/11 13:43:40;;;;;;;21.27;9.75;;;;;;;3.84;52.12;101710.34;10503988;28;20048;-65
2024/01/11 13:48:41;;;;;;;24.77;9.50;;;;;;;3.90;51.53;101715.25;10478516;28;20484;-65
2024/01/11 13:53:43;;;;;;;22.20;8.93;;;;;;;3.92;51.82;101713.34;10503339;28;20111;-66
2024/01/11 13:58:44;;;;;;;24.00;9.20;;;;;;;4.06;51.81;101710.66;10500659;28;20097;-66
2024/01/11 14:03:46;;;;;;;20.95;9.85;;;;;;;4.13;51.60;101711.13;10501131;28;20064;-65
2024/01/11 14:08:47;;;;;;;25.83;10.20;;;;;;;4.15;51.23;101706.53;10500416;28;20053;-66
2024/01/11 14:13:49;;;;;;;22.50;10.35;;;;;;;4.16;51.75;101698.44;10494165;28;20048;-66
2024/01/11 14:18:50;;;;;;;16.50;8.70;;;;;;;4.19;51.64;101697.41;10496269;28;20048;-66
2024/01/11 14:23:52;;;;;;;23.02;10.23;;;;;;;4.23;51.42;101703.38;10495238;28;20044;-64
2024/01/11 14:28:54;;;;;;;24.58;10.73;;;;;;;4.22;51.24;101691.03;10479581;28;20039;-65
2024/01/11 14:33:55;;;;;;;26.52;10.93;;;;;;;4.21;51.16;101689.31;10492553;28;20114;-65
2024/01/11 14:38:57;;;;;;;20.85;9.60;;;;;;;4.20;51.16;101679.63;10498134;28;20051;-65
2024/01/11 14:44:00;;;;;;;21.13;8.35;;;;;;;4.16;50.60;101673.66;10497142;28;20068;-65
2024/01/11 14:49:01;;;;;;;20.40;7.88;;;;;;;4.13;51.01;101674.72;10491512;28;20068;-65
2024/01/11 14:54:04;;;;;;;23.10;11.10;;;;;;;4.11;50.64;101681.09;10489830;28;20131;-65
2024/01/11 14:59:05;;;;;;;17.27;7.47;;;;;;;4.11;50.33;101695.25;10494304;28;20076;-65
2024/01/11 15:04:07;;;;;;;13.93;5.97;;;;;;;4.10;50.16;101696.19;10474760;28;20045;-66
2024/01/11 15:09:12;;;;;;;19.17;6.88;;;;;;;4.08;49.59;101700.75;10492326;28;20070;-66
2024/01/11 15:14:13;;;;;;;15.27;6.07;;;;;;;4.04;49.59;101693.94;10494801;28;20052;-66
2024/01/11 15:19:15;;;;;;;17.58;6.00;;;;;;;4.00;49.63;101694.25;10489656;28;20064;-66
2024/01/11 15:24:20;;;;;;;16.33;7.07;;;;;;;3.93;49.56;101685.78;10492741;28;20045;-66
2024/01/11 15:29:21;;;;;;;14.35;5.95;;;;;;;3.83;49.60;101690.88;10493580;28;20059;-65
2024/01/11 15:34:23;;;;;;;19.20;7.22;;;;;;;3.68;49.86;101689.19;10496150;28;20078;-65
2024/01/11 15:39:25;;;;;;;19.02;7.50;;;;;;;3.52;49.96;101714.09;10514092;28;20048;-65
2024/01/11 15:44:33;;;;;;;18.08;7.78;;;;;;;3.41;50.20;101723.69;10491258;28;20090;-66
2024/01/11 15:49:35;;;;;;;16.95;7.72;;;;;;;3.30;50.23;101727.03;10494151;28;20070;-64
2024/01/11 15:54:36;;;;;;;17.83;8.30;;;;;;;3.15;50.55;101739.44;10493228;28;20076;-65
2024/01/11 15:59:38;;;;;;;18.05;7.18;;;;;;;2.93;50.65;101746.03;10481609;28;20041;-66
2024/01/11 16:04:41;;;;;;;20.30;8.05;;;;;;;2.77;50.79;101754.06;10499503;28;20410;-65
2024/01/11 16:09:44;;;;;;;23.20;8.50;;;;;;;2.64;50.99;101761.03;10501447;28;20116;-66
2024/01/11 16:14:45;;;;;;;20.45;8.52;;;;;;;2.46;51.55;101756.81;10501751;28;20052;-66
2024/01/11 16:19:47;;;;;;;18.15;7.82;;;;;;;2.47;51.38;101759.38;10486499;28;20056;-66
2024/01/11 16:24:48;;;;;;;15.00;5.80;;;;;;;2.44;50.79;101766.66;10503416;28;20545;-66
2024/01/11 16:29:51;;;;;;;11.80;4.25;;;;;;;2.37;50.97;101761.72;10502610;28;20129;-66
2024/01/11 16:34:52;;;;;;;12.38;6.53;;;;;;;2.36;50.76;101753.81;10502629;28;20148;-66
2024/01/11 16:39:54;;;;;;;13.88;6.15;;;;;;;2.32;51.29;101768.22;10502335;28;20048;-66
2024/01/11 16:44:55;;;;;;;16.50;6.45;;;;;;;2.25;51.27;101765.06;10498302;28;20551;-66
2024/01/11 16:49:56;;;;;;;15.70;6.65;;;;;;;2.23;51.20;101769.56;10502367;28;20044;-66
2024/01/11 16:54:58;;;;;;;31.00;10.90;;;;;;;2.10;51.26;101774.72;10499094;28;20060;-65
2024/01/11 17:00:01;;;;;;;19.60;8.90;;;;;;;1.97;51.15;101779.00;10501876;28;20054;-66
2024/01/11 17:05:03;;;;;;;29.65;11.73;;;;;;;1.85;52.01;101769.06;10503236;28;20083;-65
2024/01/11 17:10:05;;;;;;;38.20;13.90;;;;;;;1.79;51.37;101768.47;10502904;28;20048;-65
2024/01/11 17:15:07;;;;;;;34.75;13.98;;;;;;;1.75;51.78;101772.22;10507263;28;20053;-66
2024/01/11 17:20:10;;;;;;;42.78;14.80;;;;;;;1.66;52.12;101780.69;10504689;28;20043;-65
2024/01/11 17:25:12;;;;;;;29.35;12.23;;;;;;;1.55;51.56;101783.91;10534867;28;20048;-66
2024/01/11 17:30:13;;;;;;;20.45;9.02;;;;;;;1.46;52.41;101786.19;10540303;28;20127;-66
2024/01/11 17:35:14;;;;;;;20.42;8.13;;;;;;;1.38;52.40;101790.13;10542307;28;20550;-65
2024/01/11 17:40:16;;;;;;;17.02;7.78;;;;;;;1.37;51.80;101787.53;10535860;28;20074;-65
2024/01/11 17:45:17;;;;;;;20.38;8.23;;;;;;;1.39;51.96;101788.31;10533913;28;20058;-65
2024/01/11 17:50:19;;;;;;;26.50;11.18;;;;;;;1.39;51.89;101777.72;10534717;28;20083;-64
2024/01/11 17:55:20;;;;;;;25.88;12.57;;;;;;;1.41;51.90;101783.78;10532172;28;20070;-63
2024/01/11 18:00:22;;;;;;;20.45;10.27;;;;;;;1.43;51.89;101786.38;10536891;28;20048;-64
2024/01/11 18:05:24;;;;;;;23.73;10.18;;;;;;;1.45;52.67;101788.00;10540019;28;20051;-65
2024/01/11 18:10:25;;;;;;;21.92;8.07;;;;;;;1.44;52.21;101788.06;10529357;28;20112;-64
2024/01/11 18:15:27;;;;;;;17.42;7.53;;;;;;;1.35;52.98;101787.63;10533065;28;20052;-64
2024/01/11 18:20:28;;;;;;;21.33;9.20;;;;;;;1.32;52.39;101801.03;10534909;28;20123;-65
2024/01/11 18:25:30;;;;;;;23.25;9.60;;;;;;;1.34;53.01;101799.16;10524639;28;20045;-66
2024/01/11 18:30:32;;;;;;;24.55;10.27;;;;;;;1.37;52.34;101795.50;10526678;28;20044;-67
2024/01/11 18:35:33;;;;;;;16.50;7.78;;;;;;;1.39;53.17;101806.88;10496406;28;20102;-66
2024/01/11 18:40:36;;;;;;;23.65;8.90;;;;;;;1.39;52.98;101802.41;10492435;28;20048;-66
2024/01/11 18:45:37;;;;;;;23.65;9.32;;;;;;;1.39;52.68;101805.06;10497987;28;20048;-66
2024/01/11 18:50:39;;;;;;;20.70;8.48;;;;;;;1.42;53.31;101811.97;10496996;28;20040;-66
2024/01/11 18:55:40;;;;;;;23.27;9.43;;;;;;;1.41;52.95;101825.34;10495924;28;20047;-66
2024/01/11 19:00:42;;;;;;;22.85;9.25;;;;;;;1.36;52.71;101810.53;10495930;28;20051;-66
2024/01/11 19:05:43;;;;;;;27.30;7.70;;;;;;;1.34;53.57;101809.75;10496491;28;20057;-67
2024/01/11 19:10:45;;;;;;;17.98;8.18;;;;;;;1.33;52.75;101815.13;10493850;28;20056;-66
2024/01/11 19:15:48;;;;;;;27.02;10.05;;;;;;;1.38;53.04;101821.03;10496062;28;20055;-66
2024/01/11 19:20:52;;;;;;;23.30;8.57;;;;;;;1.39;53.23;101846.59;10494085;28;20068;-66
2024/01/11 19:25:55;;;;;;;20.60;8.43;;;;;;;1.38;53.54;101859.00;10491428;28;20044;-66
2024/01/11 19:30:56;;;;;;;22.15;9.30;;;;;;;1.33;53.71;101858.38;10493494;28;20062;-67
2024/01/11 19:35:58;;;;;;;21.13;8.80;;;;;;;1.30;53.65;101858.50;10502647;28;20044;-66
2024/01/11 19:41:00;;;;;;;21.35;9.85;;;;;;;1.27;53.47;101863.97;10491395;28;20052;-66
2024/01/11 19:46:01;;;;;;;18.00;8.60;;;;;;;1.24;53.78;101861.47;10502378;28;20054;-66
2024/01/11 19:51:09;;;;;;;16.75;8.02;;;;;;;1.21;54.16;101874.91;10506562;28;20055;-62
2024/01/11 19:56:18;;;;;;;18.88;8.70;;;;;;;1.14;54.53;101879.63;10503506;28;20048;-61
2024/01/11 20:01:20;;;;;;;19.38;7.07;;;;;;;1.05;54.62;101887.16;10501728;28;20075;-60
2024/01/11 20:06:22;;;;;;;18.90;7.38;;;;;;;0.99;55.09;101889.22;10504485;28;20056;-61
2024/01/11 20:11:24;;;;;;;17.90;7.10;;;;;;;0.94;54.99;101885.06;10500709;28;20044;-61
2024/01/11 20:16:26;;;;;;;20.05;7.25;;;;;;;0.88;55.24;101886.22;10504110;28;20073;-59
2024/01/11 20:21:27;;;;;;;17.15;6.75;;;;;;;0.82;56.26;101897.13;10505691;28;20060;-60
2024/01/11 20:26:29;;;;;;;12.80;6.40;;;;;;;0.68;56.08;101896.94;10505103;28;20052;-59
2024/01/11 20:31:31;;;;;;;14.82;5.72;;;;;;;0.56;56.85;101895.72;10501377;28;20139;-59
2024/01/11 20:36:32;;;;;;;13.90;5.72;;;;;;;0.50;57.07;101902.16;10506009;28;20063;-65
2024/01/11 20:41:42;;;;;;;12.50;6.38;;;;;;;0.46;57.92;101899.75;10504080;28;20037;-60
2024/01/11 20:46:43;;;;;;;17.95;7.00;;;;;;;0.53;57.47;101903.78;10499580;28;20048;-59
2024/01/11 20:51:45;;;;;;;17.70;7.28;;;;;;;0.71;58.57;101895.00;10501079;28;20217;-60
2024/01/11 20:56:47;;;;;;;15.38;5.72;;;;;;;0.86;58.55;101896.03;10500687;28;20212;-60
2024/01/11 21:01:48;;;;;;;16.90;6.05;;;;;;;1.02;58.96;101893.47;10504118;28;20144;-61
2024/01/11 21:06:50;;;;;;;14.75;5.78;;;;;;;1.22;58.87;101894.28;10503215;28;20040;-61
2024/01/11 21:11:51;;;;;;;16.52;6.85;;;;;;;1.34;59.37;101894.53;10503352;28;20049;-59
2024/01/11 21:16:53;;;;;;;12.18;5.60;;;;;;;1.50;59.31;101884.00;10503511;28;20049;-59
2024/01/11 21:21:54;;;;;;;11.82;4.97;;;;;;;1.62;59.85;101889.59;10502679;28;20048;-59
2024/01/11 21:26:56;;;;;;;17.00;5.45;;;;;;;1.72;59.40;101886.38;10496323;28;20056;-59
2024/01/11 21:31:57;;;;;;;13.75;6.25;;;;;;;1.91;60.08;101894.19;10501279;28;20048;-60
2024/01/11 21:36:59;;;;;;;13.35;5.60;;;;;;;1.89;60.25;101896.09;10496397;28;20440;-60
2024/01/11 21:42:01;;;;;;;11.82;4.78;;;;;;;1.90;61.00;101900.47;10498058;28;20061;-59
2024/01/11 21:47:02;;;;;;;11.27;5.43;;;;;;;2.05;60.82;101903.22;10497037;28;20055;-59
2024/01/11 21:52:04;;;;;;;13.93;5.40;;;;;;;2.00;61.22;101900.84;10500948;28;20056;-59
2024/01/11 21:57:05;;;;;;;13.32;6.07;;;;;;;2.05;61.77;101889.97;10496413;28;20112;-59
2024/01/11 22:02:07;;;;;;;11.77;5.40;;;;;;;2.09;61.78;101891.50;10502041;28;20136;-59
2024/01/11 22:07:09;;;;;;;9.75;4.53;;;;;;;2.16;61.42;101896.41;10498554;28;20051;-59
2024/01/11 22:12:13;;;;;;;9.80;5.28;;;;;;;2.28;61.74;101894.88;10495083;28;20045;-60
2024/01/11 22:17:15;;;;;;;11.73;4.07;;;;;;;2.33;61.58;101900.81;10475415;28;20055;-60
2024/01/11 22:22:16;;;;;;;10.27;4.60;;;;;;;2.42;61.92;101894.13;10480883;28;20048;-60
2024/01/11 22:27:18;;;;;;;9.45;4.10;;;;;;;2.54;62.14;101893.44;10494822;28;20067;-60
2024/01/11 22:32:19;;;;;;;11.88;4.35;;;;;;;2.67;62.08;101890.09;10502954;28;20047;-60
2024/01/11 22:37:21;;;;;;;12.13;5.00;;;;;;;2.62;62.45;101879.72;10506264;28;20059;-60
2024/01/11 22:42:22;;;;;;;7.22;3.60;;;;;;;2.64;62.52;101872.53;10481353;28;20127;-60
2024/01/11 22:47:24;;;;;;;7.85;3.75;;;;;;;2.68;62.59;101867.91;10503834;22;20099;-60
2024/01/11 22:52:26;;;;;;;8.23;3.25;;;;;;;2.71;62.44;101863.28;10501895;28;20518;-60